sensor_id;sensor_type;location;lat;lon;timestamp;pressure;altitude;pressure_sealevel;temperature;humidity
77005;BME280;67261;53.132;18.006;2024-01-11T00:02:10;102228.96;;;-2.30;82.92
77005;BME280;67261;53.132;18.006;2024-01-11T00:04:39;102235.52;;;-2.29;82.92
77005;BME280;67261;53.132;18.006;2024-01-11T00:07:07;102232.58;;;-2.28;83.11
77005;BME280;67261;53.132;18.006;2024-01-11T00:09:39;102217.34;;;-2.29;83.10
77005;BME280;67261;53.132;18.006;2024-01-11T00:12:06;102216.66;;;-2.30;83.25
77005;BME280;67261;53.132;18.006;2024-01-11T00:14:33;102218.55;;;-2.29;83.39
77005;BME280;67261;53.132;18.006;2024-01-11T00:17:00;102212.11;;;-2.28;83.46
77005;BME280;67261;53.132;18.006;2024-01-11T00:19:27;102199.06;;;-2.26;83.34
77005;BME280;67261;53.132;18.006;2024-01-11T00:21:54;102204.92;;;-2.24;83.44
77005;BME280;67261;53.132;18.006;2024-01-11T00:24:21;102202.27;;;-2.23;83.43
77005;BME280;67261;53.132;18.006;2024-01-11T00:26:48;102192.15;;;-2.20;83.66
77005;BME280;67261;53.132;18.006;2024-01-11T00:29:15;102194.52;;;-2.18;83.56
77005;BME280;67261;53.132;18.006;2024-01-11T00:31:42;102198.86;;;-2.18;83.57
77005;BME280;67261;53.132;18.006;2024-01-11T00:34:09;102198.88;;;-2.19;83.44
77005;BME280;67261;53.132;18.006;2024-01-11T00:36:36;102191.23;;;-2.18;83.75
77005;BME280;67261;53.132;18.006;2024-01-11T00:39:03;102174.24;;;-2.18;83.76
77005;BME280;67261;53.132;18.006;2024-01-11T00:41:30;102164.14;;;-2.16;83.84
77005;BME280;67261;53.132;18.006;2024-01-11T00:43:57;102153.52;;;-2.14;83.67
77005;BME280;67261;53.132;18.006;2024-01-11T00:46:24;102131.98;;;-2.13;83.55
77005;BME280;67261;53.132;18.006;2024-01-11T00:48:51;102127.26;;;-2.12;83.61
77005;BME280;67261;53.132;18.006;2024-01-11T00:51:18;102139.23;;;-2.11;83.60
77005;BME280;67261;53.132;18.006;2024-01-11T00:53:45;102138.35;;;-2.11;83.53
77005;BME280;67261;53.132;18.006;2024-01-11T00:56:16;102142.48;;;-2.09;83.68
77005;BME280;67261;53.132;18.006;2024-01-11T00:58:43;102147.36;;;-2.10;83.65
77005;BME280;67261;53.132;18.006;2024-01-11T01:01:12;102151.84;;;-2.09;83.88
77005;BME280;67261;53.132;18.006;2024-01-11T01:03:39;102143.52;;;-2.09;83.74
77005;BME280;67261;53.132;18.006;2024-01-11T01:06:06;102140.67;;;-2.06;83.81
77005;BME280;67261;53.132;18.006;2024-01-11T01:08:33;102145.17;;;-2.06;83.81
77005;BME280;67261;53.132;18.006;2024-01-11T01:11:00;102163.20;;;-2.06;83.85
77005;BME280;67261;53.132;18.006;2024-01-11T01:13:28;102161.77;;;-2.05;83.77
77005;BME280;67261;53.132;18.006;2024-01-11T01:15:55;102160.34;;;-2.03;83.85
77005;BME280;67261;53.132;18.006;2024-01-11T01:18:22;102159.63;;;-2.02;83.95
77005;BME280;67261;53.132;18.006;2024-01-11T01:20:50;102143.13;;;-2.01;83.95
77005;BME280;67261;53.132;18.006;2024-01-11T01:23:17;102137.89;;;-2.00;83.86
77005;BME280;67261;53.132;18.006;2024-01-11T01:25:44;102143.23;;;-1.98;83.97
77005;BME280;67261;53.132;18.006;2024-01-11T01:28:11;102150.82;;;-1.97;83.89
77005;BME280;67261;53.132;18.006;2024-01-11T01:30:38;102164.80;;;-1.94;83.91
77005;BME280;67261;53.132;18.006;2024-01-11T01:33:05;102161.99;;;-1.93;83.80
77005;BME280;67261;53.132;18.006;2024-01-11T01:35:33;102147.23;;;-1.93;83.81
77005;BME280;67261;53.132;18.006;2024-01-11T01:38:01;102137.84;;;-1.90;84.04
77005;BME280;67261;53.132;18.006;2024-01-11T01:40:30;102144.94;;;-1.89;83.82
77005;BME280;67261;53.132;18.006;2024-01-11T01:42:59;102149.74;;;-1.89;83.98
77005;BME280;67261;53.132;18.006;2024-01-11T01:45:29;102158.55;;;-1.87;83.92
77005;BME280;67261;53.132;18.006;2024-01-11T01:47:56;102161.42;;;-1.85;83.93
77005;BME280;67261;53.132;18.006;2024-01-11T01:50:23;102160.36;;;-1.83;84.01
77005;BME280;67261;53.132;18.006;2024-01-11T01:52:50;102158.39;;;-1.81;84.02
77005;BME280;67261;53.132;18.006;2024-01-11T01:55:18;102171.70;;;-1.79;84.02
77005;BME280;67261;53.132;18.006;2024-01-11T01:57:47;102174.61;;;-1.77;83.96
77005;BME280;67261;53.132;18.006;2024-01-11T02:00:16;102179.92;;;-1.75;84.04
77005;BME280;67261;53.132;18.006;2024-01-11T02:02:44;102177.08;;;-1.72;84.05
77005;BME280;67261;53.132;18.006;2024-01-11T02:05:12;102168.81;;;-1.69;84.02
77005;BME280;67261;53.132;18.006;2024-01-11T02:07:40;102168.20;;;-1.66;84.11
77005;BME280;67261;53.132;18.006;2024-01-11T02:10:08;102168.52;;;-1.64;84.09
77005;BME280;67261;53.132;18.006;2024-01-11T02:12:36;102169.30;;;-1.60;84.12
77005;BME280;67261;53.132;18.006;2024-01-11T02:15:04;102165.79;;;-1.59;84.14
77005;BME280;67261;53.132;18.006;2024-01-11T02:17:31;102166.08;;;-1.57;84.22
77005;BME280;67261;53.132;18.006;2024-01-11T02:19:58;102166.73;;;-1.55;84.19
77005;BME280;67261;53.132;18.006;2024-01-11T02:22:38;102156.65;;;-1.55;84.30
77005;BME280;67261;53.132;18.006;2024-01-11T02:25:06;102163.02;;;-1.53;84.49
77005;BME280;67261;53.132;18.006;2024-01-11T02:27:49;102162.42;;;-1.51;84.58
77005;BME280;67261;53.132;18.006;2024-01-11T02:30:17;102157.46;;;-1.47;84.58
77005;BME280;67261;53.132;18.006;2024-01-11T02:32:45;102150.60;;;-1.43;84.78
77005;BME280;67261;53.132;18.006;2024-01-11T02:35:16;102143.89;;;-1.39;84.77
77005;BME280;67261;53.132;18.006;2024-01-11T02:37:43;102137.88;;;-1.35;84.70
77005;BME280;67261;53.132;18.006;2024-01-11T02:40:13;102125.60;;;-1.31;84.88
77005;BME280;67261;53.132;18.006;2024-01-11T02:42:40;102124.93;;;-1.26;84.81
77005;BME280;67261;53.132;18.006;2024-01-11T02:45:08;102121.51;;;-1.21;84.99
77005;BME280;67261;53.132;18.006;2024-01-11T02:47:36;102117.93;;;-1.18;84.91
77005;BME280;67261;53.132;18.006;2024-01-11T02:50:04;102123.35;;;-1.13;84.96
77005;BME280;67261;53.132;18.006;2024-01-11T02:52:31;102125.66;;;-1.09;85.02
77005;BME280;67261;53.132;18.006;2024-01-11T02:54:58;102119.79;;;-1.05;85.05
77005;BME280;67261;53.132;18.006;2024-01-11T02:57:25;102106.42;;;-1.00;84.99
77005;BME280;67261;53.132;18.006;2024-01-11T02:59:52;102103.88;;;-0.96;85.14
77005;BME280;67261;53.132;18.006;2024-01-11T03:02:19;102105.33;;;-0.92;85.18
77005;BME280;67261;53.132;18.006;2024-01-11T03:04:45;102097.93;;;-0.88;85.08
77005;BME280;67261;53.132;18.006;2024-01-11T03:07:12;102086.75;;;-0.86;85.13
77005;BME280;67261;53.132;18.006;2024-01-11T03:09:39;102088.92;;;-0.83;85.27
77005;BME280;67261;53.132;18.006;2024-01-11T03:12:06;102092.84;;;-0.81;85.14
77005;BME280;67261;53.132;18.006;2024-01-11T03:14:33;102084.41;;;-0.78;85.21
77005;BME280;67261;53.132;18.006;2024-01-11T03:17:00;102066.60;;;-0.76;85.21
77005;BME280;67261;53.132;18.006;2024-01-11T03:19:28;102057.47;;;-0.73;85.39
77005;BME280;67261;53.132;18.006;2024-01-11T03:21:55;102049.42;;;-0.71;85.35
77005;BME280;67261;53.132;18.006;2024-01-11T03:24:21;102042.91;;;-0.69;85.41
77005;BME280;67261;53.132;18.006;2024-01-11T03:26:48;102031.40;;;-0.67;85.45
77005;BME280;67261;53.132;18.006;2024-01-11T03:29:15;102035.99;;;-0.64;85.39
77005;BME280;67261;53.132;18.006;2024-01-11T03:31:42;102033.70;;;-0.63;85.36
77005;BME280;67261;53.132;18.006;2024-01-11T03:34:11;102037.63;;;-0.61;85.43
77005;BME280;67261;53.132;18.006;2024-01-11T03:36:38;102047.11;;;-0.59;85.34
77005;BME280;67261;53.132;18.006;2024-01-11T03:39:05;102046.49;;;-0.56;85.49
77005;BME280;67261;53.132;18.006;2024-01-11T03:41:32;102053.05;;;-0.55;85.45
77005;BME280;67261;53.132;18.006;2024-01-11T03:43:59;102052.59;;;-0.51;85.42
77005;BME280;67261;53.132;18.006;2024-01-11T03:46:27;102050.10;;;-0.50;85.26
77005;BME280;67261;53.132;18.006;2024-01-11T03:48:54;102048.68;;;-0.49;85.48
77005;BME280;67261;53.132;18.006;2024-01-11T03:51:22;102041.36;;;-0.48;85.32
77005;BME280;67261;53.132;18.006;2024-01-11T03:53:49;102029.02;;;-0.48;85.26
77005;BME280;67261;53.132;18.006;2024-01-11T03:56:16;102019.59;;;-0.46;85.33
77005;BME280;67261;53.132;18.006;2024-01-11T03:58:43;102013.09;;;-0.45;85.57
77005;BME280;67261;53.132;18.006;2024-01-11T04:01:11;102009.91;;;-0.43;85.43
77005;BME280;67261;53.132;18.006;2024-01-11T04:03:38;102009.86;;;-0.42;85.36
77005;BME280;67261;53.132;18.006;2024-01-11T04:06:05;102008.27;;;-0.41;85.44
77005;BME280;67261;53.132;18.006;2024-01-11T04:08:32;101995.33;;;-0.39;85.49
77005;BME280;67261;53.132;18.006;2024-01-11T04:11:02;101983.40;;;-0.35;85.49
77005;BME280;67261;53.132;18.006;2024-01-11T04:13:30;101972.90;;;-0.34;85.23
77005;BME280;67261;53.132;18.006;2024-01-11T04:15:57;101970.09;;;-0.33;85.32
77005;BME280;67261;53.132;18.006;2024-01-11T04:18:24;101959.45;;;-0.32;85.29
77005;BME280;67261;53.132;18.006;2024-01-11T04:20:51;101951.92;;;-0.31;85.37
77005;BME280;67261;53.132;18.006;2024-01-11T04:23:18;101953.98;;;-0.30;85.45
77005;BME280;67261;53.132;18.006;2024-01-11T04:25:45;101955.66;;;-0.29;85.38
77005;BME280;67261;53.132;18.006;2024-01-11T04:28:12;101967.13;;;-0.28;85.32
77005;BME280;67261;53.132;18.006;2024-01-11T04:30:39;101972.50;;;-0.27;85.38
77005;BME280;67261;53.132;18.006;2024-01-11T04:33:06;101969.31;;;-0.26;85.49
77005;BME280;67261;53.132;18.006;2024-01-11T04:35:33;101969.43;;;-0.24;85.24
77005;BME280;67261;53.132;18.006;2024-01-11T04:37:59;101953.37;;;-0.23;85.37
77005;BME280;67261;53.132;18.006;2024-01-11T04:41:43;101942.19;;;-0.17;85.19
77005;BME280;67261;53.132;18.006;2024-01-11T04:44:10;101951.10;;;-0.18;85.18
77005;BME280;67261;53.132;18.006;2024-01-11T04:46:37;101961.73;;;-0.18;85.18
77005;BME280;67261;53.132;18.006;2024-01-11T04:49:04;101964.70;;;-0.19;85.24
77005;BME280;67261;53.132;18.006;2024-01-11T04:51:31;101964.53;;;-0.19;85.22
77005;BME280;67261;53.132;18.006;2024-01-11T04:53:57;101958.23;;;-0.18;85.27
77005;BME280;67261;53.132;18.006;2024-01-11T04:56:24;101957.15;;;-0.16;85.31
77005;BME280;67261;53.132;18.006;2024-01-11T04:58:52;101947.69;;;-0.15;85.23
77005;BME280;67261;53.132;18.006;2024-01-11T05:01:19;101946.23;;;-0.13;85.35
77005;BME280;67261;53.132;18.006;2024-01-11T05:03:47;101943.81;;;-0.13;85.38
77005;BME280;67261;53.132;18.006;2024-01-11T05:06:15;101953.04;;;-0.09;85.36
77005;BME280;67261;53.132;18.006;2024-01-11T05:08:46;101960.35;;;-0.09;85.31
77005;BME280;67261;53.132;18.006;2024-01-11T05:11:17;101955.31;;;-0.09;85.41
77005;BME280;67261;53.132;18.006;2024-01-11T05:13:47;101953.40;;;-0.09;85.47
77005;BME280;67261;53.132;18.006;2024-01-11T05:16:26;101950.44;;;-0.09;85.42
77005;BME280;67261;53.132;18.006;2024-01-11T05:18:55;101941.92;;;-0.09;85.56
77005;BME280;67261;53.132;18.006;2024-01-11T05:21:23;101941.23;;;-0.09;85.55
77005;BME280;67261;53.132;18.006;2024-01-11T05:23:50;101947.48;;;-0.09;85.53
77005;BME280;67261;53.132;18.006;2024-01-11T05:26:19;101949.08;;;-0.10;85.46
77005;BME280;67261;53.132;18.006;2024-01-11T05:28:47;101945.95;;;-0.10;85.55
77005;BME280;67261;53.132;18.006;2024-01-11T05:31:15;101948.70;;;-0.09;85.70
77005;BME280;67261;53.132;18.006;2024-01-11T05:33:42;101952.60;;;-0.07;85.76
77005;BME280;67261;53.132;18.006;2024-01-11T05:36:09;101941.27;;;-0.06;85.73
77005;BME280;67261;53.132;18.006;2024-01-11T05:38:38;101948.52;;;-0.05;85.68
77005;BME280;67261;53.132;18.006;2024-01-11T05:41:06;101951.48;;;-0.04;85.69
77005;BME280;67261;53.132;18.006;2024-01-11T05:43:33;101950.36;;;-0.03;85.76
77005;BME280;67261;53.132;18.006;2024-01-11T05:46:00;101956.94;;;-0.02;85.78
77005;BME280;67261;53.132;18.006;2024-01-11T05:48:30;101946.29;;;-0.01;85.74
77005;BME280;67261;53.132;18.006;2024-01-11T05:50:59;101938.75;;;0.01;85.78
77005;BME280;67261;53.132;18.006;2024-01-11T05:53:28;101948.14;;;0.02;85.70
77005;BME280;67261;53.132;18.006;2024-01-11T05:55:55;101940.41;;;0.04;85.80
77005;BME280;67261;53.132;18.006;2024-01-11T05:58:22;101935.64;;;0.06;85.70
77005;BME280;67261;53.132;18.006;2024-01-11T06:00:48;101917.35;;;0.06;85.77
77005;BME280;67261;53.132;18.006;2024-01-11T06:03:15;101918.64;;;0.09;85.62
77005;BME280;67261;53.132;18.006;2024-01-11T06:05:42;101914.86;;;0.12;85.67
77005;BME280;67261;53.132;18.006;2024-01-11T06:08:09;101909.74;;;0.14;85.69
77005;BME280;67261;53.132;18.006;2024-01-11T06:10:36;101911.41;;;0.16;85.53
77005;BME280;67261;53.132;18.006;2024-01-11T06:13:04;101912.55;;;0.18;85.67
77005;BME280;67261;53.132;18.006;2024-01-11T06:15:31;101912.11;;;0.20;85.52
77005;BME280;67261;53.132;18.006;2024-01-11T06:17:58;101915.54;;;0.22;85.42
77005;BME280;67261;53.132;18.006;2024-01-11T06:20:25;101917.02;;;0.23;85.55
77005;BME280;67261;53.132;18.006;2024-01-11T06:22:53;101908.09;;;0.25;85.53
77005;BME280;67261;53.132;18.006;2024-01-11T06:25:20;101909.75;;;0.27;85.44
77005;BME280;67261;53.132;18.006;2024-01-11T06:27:48;101911.27;;;0.29;85.37
77005;BME280;67261;53.132;18.006;2024-01-11T06:30:22;101911.15;;;0.31;85.36
77005;BME280;67261;53.132;18.006;2024-01-11T06:32:51;101900.84;;;0.32;85.27
77005;BME280;67261;53.132;18.006;2024-01-11T06:35:18;101905.86;;;0.33;85.32
77005;BME280;67261;53.132;18.006;2024-01-11T06:37:46;101919.70;;;0.35;85.34
77005;BME280;67261;53.132;18.006;2024-01-11T06:40:13;101918.08;;;0.37;85.33
77005;BME280;67261;53.132;18.006;2024-01-11T06:42:42;101911.23;;;0.38;85.24
77005;BME280;67261;53.132;18.006;2024-01-11T06:45:09;101905.41;;;0.40;85.24
77005;BME280;67261;53.132;18.006;2024-01-11T06:47:39;101899.05;;;0.42;85.22
77005;BME280;67261;53.132;18.006;2024-01-11T06:50:06;101897.61;;;0.44;85.19
77005;BME280;67261;53.132;18.006;2024-01-11T06:52:35;101900.30;;;0.46;85.20
77005;BME280;67261;53.132;18.006;2024-01-11T06:55:02;101898.00;;;0.47;85.08
77005;BME280;67261;53.132;18.006;2024-01-11T06:57:29;101890.14;;;0.47;85.18
77005;BME280;67261;53.132;18.006;2024-01-11T06:59:56;101892.73;;;0.47;85.16
77005;BME280;67261;53.132;18.006;2024-01-11T07:02:23;101894.45;;;0.49;85.09
77005;BME280;67261;53.132;18.006;2024-01-11T07:04:50;101890.56;;;0.50;85.12
77005;BME280;67261;53.132;18.006;2024-01-11T07:07:17;101892.21;;;0.53;85.03
77005;BME280;67261;53.132;18.006;2024-01-11T07:09:44;101895.30;;;0.54;84.95
77005;BME280;67261;53.132;18.006;2024-01-11T07:12:16;101898.55;;;0.55;85.07
77005;BME280;67261;53.132;18.006;2024-01-11T07:14:44;101897.26;;;0.57;84.98
77005;BME280;67261;53.132;18.006;2024-01-11T07:17:12;101903.95;;;0.59;85.06
77005;BME280;67261;53.132;18.006;2024-01-11T07:19:39;101908.76;;;0.61;84.99
77005;BME280;67261;53.132;18.006;2024-01-11T07:22:06;101903.13;;;0.62;85.00
77005;BME280;67261;53.132;18.006;2024-01-11T07:24:34;101896.27;;;0.64;84.97
77005;BME280;67261;53.132;18.006;2024-01-11T07:27:07;101896.03;;;0.66;84.92
77005;BME280;67261;53.132;18.006;2024-01-11T07:29:34;101894.05;;;0.67;84.87
77005;BME280;67261;53.132;18.006;2024-01-11T07:32:01;101886.01;;;0.68;84.78
77005;BME280;67261;53.132;18.006;2024-01-11T07:34:30;101874.47;;;0.69;84.95
77005;BME280;67261;53.132;18.006;2024-01-11T07:36:57;101873.53;;;0.70;84.78
77005;BME280;67261;53.132;18.006;2024-01-11T07:39:25;101867.90;;;0.72;84.78
77005;BME280;67261;53.132;18.006;2024-01-11T07:41:52;101861.11;;;0.72;84.78
77005;BME280;67261;53.132;18.006;2024-01-11T07:44:19;101860.57;;;0.73;84.82
77005;BME280;67261;53.132;18.006;2024-01-11T07:46:49;101865.36;;;0.74;84.91
77005;BME280;67261;53.132;18.006;2024-01-11T07:49:16;101870.42;;;0.74;84.78
77005;BME280;67261;53.132;18.006;2024-01-11T07:51:43;101870.23;;;0.75;84.83
77005;BME280;67261;53.132;18.006;2024-01-11T07:54:10;101870.98;;;0.78;84.84
77005;BME280;67261;53.132;18.006;2024-01-11T07:56:38;101871.36;;;0.81;84.82
77005;BME280;67261;53.132;18.006;2024-01-11T07:59:05;101872.20;;;0.81;84.90
77005;BME280;67261;53.132;18.006;2024-01-11T08:01:32;101876.66;;;0.83;84.70
77005;BME280;67261;53.132;18.006;2024-01-11T08:04:01;101877.13;;;0.81;84.87
77005;BME280;67261;53.132;18.006;2024-01-11T08:06:30;101886.67;;;0.85;84.83
77005;BME280;67261;53.132;18.006;2024-01-11T08:08:57;101887.63;;;0.88;84.86
77005;BME280;67261;53.132;18.006;2024-01-11T08:11:24;101883.81;;;0.91;84.97
77005;BME280;67261;53.132;18.006;2024-01-11T08:13:51;101886.46;;;0.95;84.83
77005;BME280;67261;53.132;18.006;2024-01-11T08:16:21;101893.36;;;0.97;84.83
77005;BME280;67261;53.132;18.006;2024-01-11T08:18:48;101888.95;;;0.98;84.86
77005;BME280;67261;53.132;18.006;2024-01-11T08:21:15;101886.90;;;1.01;84.86
77005;BME280;67261;53.132;18.006;2024-01-11T08:23:43;101889.79;;;1.03;85.01
77005;BME280;67261;53.132;18.006;2024-01-11T08:26:15;101899.61;;;1.05;85.01
77005;BME280;67261;53.132;18.006;2024-01-11T08:28:42;101900.65;;;1.05;84.96
77005;BME280;67261;53.132;18.006;2024-01-11T08:31:09;101903.18;;;1.07;85.01
77005;BME280;67261;53.132;18.006;2024-01-11T08:33:36;101884.39;;;1.11;85.18
77005;BME280;67261;53.132;18.006;2024-01-11T08:36:05;101873.35;;;1.16;84.97
77005;BME280;67261;53.132;18.006;2024-01-11T08:38:33;101878.72;;;1.21;84.99
77005;BME280;67261;53.132;18.006;2024-01-11T08:41:00;101883.80;;;1.24;84.98
77005;BME280;67261;53.132;18.006;2024-01-11T08:43:27;101881.06;;;1.27;84.93
77005;BME280;67261;53.132;18.006;2024-01-11T08:45:54;101881.88;;;1.28;84.99
77005;BME280;67261;53.132;18.006;2024-01-11T08:48:21;101883.73;;;1.30;85.02
77005;BME280;67261;53.132;18.006;2024-01-11T08:50:48;101884.16;;;1.32;84.96
77005;BME280;67261;53.132;18.006;2024-01-11T08:53:24;101886.84;;;1.35;84.94
77005;BME280;67261;53.132;18.006;2024-01-11T08:55:52;101897.89;;;1.37;84.97
77005;BME280;67261;53.132;18.006;2024-01-11T08:58:24;101899.79;;;1.38;84.93
77005;BME280;67261;53.132;18.006;2024-01-11T09:00:51;101900.32;;;1.37;84.93
77005;BME280;67261;53.132;18.006;2024-01-11T09:03:18;101907.23;;;1.39;84.91
77005;BME280;67261;53.132;18.006;2024-01-11T09:05:44;101910.41;;;1.42;84.97
77005;BME280;67261;53.132;18.006;2024-01-11T09:08:11;101919.35;;;1.45;84.92
77005;BME280;67261;53.132;18.006;2024-01-11T09:10:38;101924.80;;;1.48;84.84
77005;BME280;67261;53.132;18.006;2024-01-11T09:13:05;101922.53;;;1.52;84.96
77005;BME280;67261;53.132;18.006;2024-01-11T09:15:32;101921.59;;;1.53;84.74
77005;BME280;67261;53.132;18.006;2024-01-11T09:18:00;101927.95;;;1.55;84.74
77005;BME280;67261;53.132;18.006;2024-01-11T09:20:27;101922.38;;;1.55;84.80
77005;BME280;67261;53.132;18.006;2024-01-11T09:22:54;101917.24;;;1.57;84.79
77005;BME280;67261;53.132;18.006;2024-01-11T09:25:21;101916.79;;;1.59;84.71
77005;BME280;67261;53.132;18.006;2024-01-11T09:27:48;101920.73;;;1.61;84.66
77005;BME280;67261;53.132;18.006;2024-01-11T09:30:16;101918.52;;;1.64;84.78
77005;BME280;67261;53.132;18.006;2024-01-11T09:32:43;101916.83;;;1.66;84.67
77005;BME280;67261;53.132;18.006;2024-01-11T09:35:12;101912.00;;;1.69;84.62
77005;BME280;67261;53.132;18.006;2024-01-11T09:37:41;101909.98;;;1.71;84.68
77005;BME280;67261;53.132;18.006;2024-01-11T09:40:10;101913.05;;;1.73;84.63
77005;BME280;67261;53.132;18.006;2024-01-11T09:42:43;101909.05;;;1.76;84.66
77005;BME280;67261;53.132;18.006;2024-01-11T09:45:13;101907.18;;;1.79;84.57
77005;BME280;67261;53.132;18.006;2024-01-11T09:47:43;101903.30;;;1.80;84.53
77005;BME280;67261;53.132;18.006;2024-01-11T09:50:13;101904.67;;;1.81;84.42
77005;BME280;67261;53.132;18.006;2024-01-11T09:52:48;101904.83;;;1.81;84.63
77005;BME280;67261;53.132;18.006;2024-01-11T09:55:18;101899.84;;;1.83;84.50
77005;BME280;67261;53.132;18.006;2024-01-11T09:57:47;101907.66;;;1.84;84.49
77005;BME280;67261;53.132;18.006;2024-01-11T10:00:22;101904.37;;;1.84;84.53
77005;BME280;67261;53.132;18.006;2024-01-11T10:02:49;101899.30;;;1.87;84.56
77005;BME280;67261;53.132;18.006;2024-01-11T10:05:17;101902.91;;;1.93;84.58
77005;BME280;67261;53.132;18.006;2024-01-11T10:07:44;101896.06;;;1.97;84.43
77005;BME280;67261;53.132;18.006;2024-01-11T10:10:14;101889.00;;;1.99;84.31
77005;BME280;67261;53.132;18.006;2024-01-11T10:12:44;101898.16;;;2.05;84.37
77005;BME280;67261;53.132;18.006;2024-01-11T10:15:12;101902.18;;;2.12;84.32
77005;BME280;67261;53.132;18.006;2024-01-11T10:17:43;101897.58;;;2.17;84.19
77005;BME280;67261;53.132;18.006;2024-01-11T10:20:12;101893.70;;;2.22;84.06
77005;BME280;67261;53.132;18.006;2024-01-11T10:22:41;101897.13;;;2.23;84.10
77005;BME280;67261;53.132;18.006;2024-01-11T10:25:13;101903.20;;;2.24;83.99
77005;BME280;67261;53.132;18.006;2024-01-11T10:27:43;101899.38;;;2.23;83.90
77005;BME280;67261;53.132;18.006;2024-01-11T10:30:12;101897.80;;;2.24;83.97
77005;BME280;67261;53.132;18.006;2024-01-11T10:32:48;101894.23;;;2.25;83.93
77005;BME280;67261;53.132;18.006;2024-01-11T10:35:16;101892.67;;;2.25;83.94
77005;BME280;67261;53.132;18.006;2024-01-11T10:37:47;101890.10;;;2.24;83.98
77005;BME280;67261;53.132;18.006;2024-01-11T10:40:17;101882.08;;;2.20;83.96
77005;BME280;67261;53.132;18.006;2024-01-11T10:42:51;101886.85;;;2.15;83.82
77005;BME280;67261;53.132;18.006;2024-01-11T10:45:20;101881.78;;;2.12;84.06
77005;BME280;67261;53.132;18.006;2024-01-11T10:48:00;101880.09;;;2.07;84.00
77005;BME280;67261;53.132;18.006;2024-01-11T10:50:30;101878.98;;;2.05;84.17
77005;BME280;67261;53.132;18.006;2024-01-11T10:55:39;101886.73;;;2.14;84.03
77005;BME280;67261;53.132;18.006;2024-01-11T10:58:07;101894.92;;;2.18;83.98
77005;BME280;67261;53.132;18.006;2024-01-11T11:00:35;101898.33;;;2.19;83.82
77005;BME280;67261;53.132;18.006;2024-01-11T11:03:04;101897.74;;;2.21;83.87
77005;BME280;67261;53.132;18.006;2024-01-11T11:05:34;101891.40;;;2.22;83.80
77005;BME280;67261;53.132;18.006;2024-01-11T11:08:03;101891.76;;;2.22;83.79
77005;BME280;67261;53.132;18.006;2024-01-11T11:10:33;101888.37;;;2.24;83.75
77005;BME280;67261;53.132;18.006;2024-01-11T11:13:00;101887.74;;;2.26;83.76
77005;BME280;67261;53.132;18.006;2024-01-11T11:15:28;101884.04;;;2.27;83.77
77005;BME280;67261;53.132;18.006;2024-01-11T11:17:57;101879.35;;;2.26;83.81
77005;BME280;67261;53.132;18.006;2024-01-11T11:20:24;101869.26;;;2.29;83.66
77005;BME280;67261;53.132;18.006;2024-01-11T11:23:07;101862.27;;;2.33;83.63
77005;BME280;67261;53.132;18.006;2024-01-11T11:25:37;101857.88;;;2.36;83.46
77005;BME280;67261;53.132;18.006;2024-01-11T11:28:05;101852.31;;;2.40;83.51
77005;BME280;67261;53.132;18.006;2024-01-11T11:30:33;101847.77;;;2.44;83.58
77005;BME280;67261;53.132;18.006;2024-01-11T11:33:25;101847.54;;;2.45;83.22
77005;BME280;67261;53.132;18.006;2024-01-11T11:35:54;101846.60;;;2.43;83.34
77005;BME280;67261;53.132;18.006;2024-01-11T11:38:28;101851.17;;;2.42;83.43
77005;BME280;67261;53.132;18.006;2024-01-11T11:41:00;101853.81;;;2.45;83.38
77005;BME280;67261;53.132;18.006;2024-01-11T11:43:29;101848.77;;;2.44;83.35
77005;BME280;67261;53.132;18.006;2024-01-11T11:45:57;101844.84;;;2.43;83.40
77005;BME280;67261;53.132;18.006;2024-01-11T11:51:20;101846.08;;;2.46;83.33
77005;BME280;67261;53.132;18.006;2024-01-11T11:53:48;101843.35;;;2.45;83.25
77005;BME280;67261;53.132;18.006;2024-01-11T11:56:23;101844.31;;;2.43;83.22
77005;BME280;67261;53.132;18.006;2024-01-11T11:58:50;101844.35;;;2.42;83.09
77005;BME280;67261;53.132;18.006;2024-01-11T12:01:21;101838.61;;;2.42;83.31
77005;BME280;67261;53.132;18.006;2024-01-11T12:03:48;101835.80;;;2.42;83.25
77005;BME280;67261;53.132;18.006;2024-01-11T12:06:20;101828.44;;;2.43;83.31
77005;BME280;67261;53.132;18.006;2024-01-11T12:08:52;101829.57;;;2.48;83.32
77005;BME280;67261;53.132;18.006;2024-01-11T12:11:20;101822.45;;;2.54;83.12
77005;BME280;67261;53.132;18.006;2024-01-11T12:13:48;101819.08;;;2.58;82.89
77005;BME280;67261;53.132;18.006;2024-01-11T12:16:16;101817.23;;;2.64;82.93
77005;BME280;67261;53.132;18.006;2024-01-11T12:18:43;101811.54;;;2.69;82.87
77005;BME280;67261;53.132;18.006;2024-01-11T12:21:10;101809.13;;;2.72;82.68
77005;BME280;67261;53.132;18.006;2024-01-11T12:23:38;101807.56;;;2.72;82.58
77005;BME280;67261;53.132;18.006;2024-01-11T12:26:07;101808.59;;;2.73;82.57
77005;BME280;67261;53.132;18.006;2024-01-11T12:28:41;101807.02;;;2.72;82.67
77005;BME280;67261;53.132;18.006;2024-01-11T12:31:09;101809.41;;;2.73;82.62
77005;BME280;67261;53.132;18.006;2024-01-11T12:33:36;101798.25;;;2.73;82.67
77005;BME280;67261;53.132;18.006;2024-01-11T12:36:06;101795.21;;;2.74;82.59
77005;BME280;67261;53.132;18.006;2024-01-11T12:38:34;101791.98;;;2.75;82.37
77005;BME280;67261;53.132;18.006;2024-01-11T12:41:01;101798.94;;;2.77;82.44
77005;BME280;67261;53.132;18.006;2024-01-11T12:43:29;101797.74;;;2.76;82.44
77005;BME280;67261;53.132;18.006;2024-01-11T12:45:56;101808.45;;;2.79;82.52
77005;BME280;67261;53.132;18.006;2024-01-11T12:48:24;101813.70;;;2.82;82.41
77005;BME280;67261;53.132;18.006;2024-01-11T12:50:54;101817.75;;;2.81;82.16
77005;BME280;67261;53.132;18.006;2024-01-11T12:53:21;101820.48;;;2.79;82.37
77005;BME280;67261;53.132;18.006;2024-01-11T12:56:03;101822.10;;;2.78;82.31
77005;BME280;67261;53.132;18.006;2024-01-11T12:58:30;101825.44;;;2.74;82.29